Terminal Aerodrome Forecast
Issued by NWS

Home | Current Version | Previous Version | Text Only | Print | Product List | Glossary Off
Versions: 1 2 3 4 5 6 7 8 9 10 11 12 13 14 15 16 17

000
FTUS43 KDVN 192320
TAFCID
TAF
KCID 192320Z 2000/2024 13004KT P6SM SKC
     FM201000 14005KT P6SM SCT120
      TEMPO 2011/2013 5SM BR
     FM201400 18013KT P6SM SCT040 BKN120=

USA.gov is the U.S. government's official web portal to all federal, state and local government web resources and services.